createdAt,value
2018-09-30T00:02:40.049Z,74.15
2018-09-30T00:05:45.441Z,75.13
2018-09-30T00:08:50.830Z,75.36
2018-09-30T00:11:56.233Z,75.49
2018-09-30T00:15:01.628Z,75.39
2018-09-30T00:18:07.414Z,74.91
2018-09-30T00:21:12.807Z,75.00
2018-09-30T00:24:23.410Z,74.94
2018-09-30T00:27:28.797Z,74.74
2018-09-30T00:30:34.184Z,74.46
2018-09-30T00:33:44.666Z,74.68
2018-09-30T00:36:50.070Z,74.41
2018-09-30T00:39:55.458Z,74.49
2018-09-30T00:43:00.868Z,74.61
2018-09-30T00:46:06.307Z,74.72
2018-09-30T00:49:11.709Z,75.26
2018-09-30T00:52:17.111Z,74.38
2018-09-30T00:55:22.489Z,74.25
2018-09-30T00:58:27.903Z,74.35
2018-09-30T01:01:33.294Z,74.11
2018-09-30T01:04:38.696Z,73.83
2018-09-30T01:07:44.086Z,73.49
2018-09-30T01:10:49.466Z,73.30
2018-09-30T01:13:55.042Z,73.59
2018-09-30T01:17:00.434Z,73.32
2018-09-30T01:20:05.834Z,73.11
2018-09-30T01:23:11.265Z,73.31
2018-09-30T01:26:16.648Z,73.19
2018-09-30T01:29:22.059Z,73.15
2018-09-30T01:32:27.450Z,72.69
2018-09-30T01:35:32.874Z,72.94
2018-09-30T01:38:38.491Z,73.00
2018-09-30T01:41:43.862Z,73.99
2018-09-30T01:44:49.291Z,74.35
2018-09-30T01:47:54.854Z,75.01
2018-09-30T01:51:00.237Z,74.99
2018-09-30T01:54:05.655Z,75.26
2018-09-30T01:57:11.042Z,75.47
2018-09-30T02:00:17.201Z,74.67
2018-09-30T02:03:22.653Z,74.48
2018-09-30T02:06:28.238Z,73.88
2018-09-30T02:09:34.147Z,74.40
2018-09-30T02:12:39.571Z,74.37
2018-09-30T02:15:44.946Z,74.50
2018-09-30T02:18:50.361Z,75.25
2018-09-30T02:21:55.738Z,75.29
2018-09-30T02:25:01.153Z,75.21
2018-09-30T02:28:06.565Z,75.14
2018-09-30T02:31:11.956Z,74.78
2018-09-30T02:34:17.378Z,74.63
2018-09-30T02:37:23.090Z,74.63
2018-09-30T02:40:28.483Z,73.60
2018-09-30T02:43:33.869Z,73.87
2018-09-30T02:46:39.250Z,74.14
2018-09-30T02:49:44.641Z,74.65
2018-09-30T02:52:50.015Z,74.43
2018-09-30T02:55:55.403Z,74.38
2018-09-30T02:59:00.815Z,74.50
2018-09-30T03:02:07.226Z,74.73
2018-09-30T03:05:12.994Z,74.89
2018-09-30T03:08:23.594Z,75.15
2018-09-30T03:11:28.995Z,75.01
2018-09-30T03:14:34.418Z,74.61
2018-09-30T03:17:39.947Z,74.31
2018-09-30T03:20:45.336Z,74.57
2018-09-30T03:23:50.747Z,74.93
2018-09-30T03:26:56.104Z,75.18
2018-09-30T03:30:01.496Z,74.89
2018-09-30T03:33:06.947Z,75.53
2018-09-30T03:36:12.451Z,75.33
2018-09-30T03:39:18.272Z,75.62
2018-09-30T03:42:23.695Z,75.46
2018-09-30T03:45:29.101Z,75.63
2018-09-30T03:48:34.466Z,76.08
2018-09-30T03:51:40.274Z,75.62
2018-09-30T03:54:45.728Z,76.21
2018-09-30T03:57:51.115Z,75.82
2018-09-30T04:00:56.521Z,75.35
2018-09-30T04:04:02.634Z,75.44
2018-09-30T04:07:08.042Z,75.77
2018-09-30T04:10:13.527Z,76.15
2018-09-30T04:13:19.099Z,76.05
2018-09-30T04:16:24.515Z,75.29
2018-09-30T04:19:30.484Z,75.09
2018-09-30T04:22:35.851Z,74.41
2018-09-30T04:25:41.261Z,74.62
2018-09-30T04:28:46.650Z,73.94
2018-09-30T04:31:52.043Z,73.89
2018-09-30T04:34:57.491Z,74.39
2018-09-30T04:38:02.854Z,73.82
2018-09-30T04:41:08.679Z,74.27
2018-09-30T04:44:14.083Z,74.24
2018-09-30T04:47:19.486Z,73.95
2018-09-30T04:50:24.934Z,73.24
2018-09-30T04:53:30.321Z,72.89
2018-09-30T04:56:35.728Z,73.14
2018-09-30T04:59:41.156Z,72.93
2018-09-30T05:02:46.566Z,72.90
2018-09-30T05:05:52.024Z,72.68
2018-09-30T05:08:57.599Z,72.65
2018-09-30T05:12:03.065Z,73.07
2018-09-30T05:15:08.822Z,73.32
2018-09-30T05:18:14.186Z,73.45
2018-09-30T05:21:19.584Z,73.58
2018-09-30T05:24:24.982Z,73.66
2018-09-30T05:27:30.395Z,74.33
2018-09-30T05:30:35.851Z,74.99
2018-09-30T05:33:41.246Z,74.29
2018-09-30T05:36:46.654Z,74.85
2018-09-30T05:39:52.046Z,74.71
2018-09-30T05:42:57.443Z,74.09
2018-09-30T05:46:02.856Z,73.67
2018-09-30T05:49:08.897Z,74.11
2018-09-30T05:52:14.607Z,73.35
2018-09-30T05:55:20.030Z,73.58
2018-09-30T05:58:25.419Z,73.09
2018-09-30T06:01:30.819Z,73.04
2018-09-30T06:04:36.237Z,72.99
2018-09-30T06:07:41.643Z,72.61
2018-09-30T06:10:47.056Z,72.36
2018-09-30T06:13:52.468Z,71.72
2018-09-30T06:16:58.077Z,70.85
2018-09-30T06:20:03.493Z,70.58
2018-09-30T06:23:09.091Z,70.73
2018-09-30T06:26:14.496Z,70.34
2018-09-30T06:29:20.362Z,72.23
2018-09-30T06:32:25.787Z,70.60
2018-09-30T06:35:31.229Z,70.83
2018-09-30T06:38:36.635Z,70.59
2018-09-30T06:41:42.041Z,70.89
2018-09-30T06:44:47.470Z,70.49
2018-09-30T06:47:53.378Z,70.16
2018-09-30T06:50:58.912Z,70.50
2018-09-30T06:54:04.454Z,71.43
2018-09-30T06:57:10.245Z,70.73
2018-09-30T07:00:15.635Z,70.06
2018-09-30T07:03:21.058Z,70.62
2018-09-30T07:06:26.499Z,70.56
2018-09-30T07:09:31.873Z,70.44
2018-09-30T07:12:37.278Z,70.30
2018-09-30T07:15:43.358Z,69.66
2018-09-30T07:18:48.744Z,69.89
2018-09-30T07:21:54.162Z,69.98
2018-09-30T07:24:59.559Z,70.16
2018-09-30T07:28:04.958Z,70.13
2018-09-30T07:31:10.411Z,69.02
2018-09-30T07:34:15.827Z,68.83
2018-09-30T07:37:21.574Z,67.26
2018-09-30T07:40:27.553Z,67.83
2018-09-30T07:43:32.950Z,67.19
2018-09-30T07:46:38.518Z,66.91
2018-09-30T07:49:44.122Z,66.87
2018-09-30T07:52:49.527Z,66.59
2018-09-30T07:55:54.915Z,65.64
2018-09-30T07:59:00.702Z,66.12
2018-09-30T08:02:06.182Z,66.42
2018-09-30T08:05:11.906Z,65.98
2018-09-30T08:08:17.565Z,61.34
2018-09-30T08:11:22.946Z,60.05
2018-09-30T08:14:28.591Z,59.60
2018-09-30T08:17:34.007Z,59.83
2018-09-30T08:20:39.419Z,59.32
2018-09-30T08:23:44.818Z,58.71
2018-09-30T08:26:50.747Z,57.27
2018-09-30T08:29:56.147Z,56.30
2018-09-30T08:33:01.550Z,54.54
2018-09-30T08:36:08.951Z,53.95
2018-09-30T08:39:14.730Z,53.91
2018-09-30T08:42:20.166Z,53.71
2018-09-30T08:45:25.569Z,54.54
2018-09-30T08:48:31.030Z,54.27
2018-09-30T08:51:36.431Z,54.52
2018-09-30T08:54:41.864Z,54.47
2018-09-30T08:57:47.886Z,53.91
2018-09-30T09:00:53.389Z,53.41
2018-09-30T09:03:59.262Z,52.35
2018-09-30T09:07:04.651Z,52.33
2018-09-30T09:10:10.067Z,52.00
2018-09-30T09:13:15.507Z,52.83
2018-09-30T09:16:20.882Z,52.93
2018-09-30T09:19:26.319Z,51.84
2018-09-30T09:22:31.831Z,51.96
2018-09-30T09:25:37.618Z,50.97
2018-09-30T09:28:43.269Z,50.84
2018-09-30T09:31:48.693Z,50.27
2018-09-30T09:34:54.328Z,50.22
2018-09-30T09:38:00.054Z,50.33
2018-09-30T09:41:05.775Z,50.02
2018-09-30T09:44:11.450Z,49.90
2018-09-30T09:47:17.621Z,49.03
2018-09-30T09:50:23.399Z,48.72
2018-09-30T09:53:28.926Z,46.95
2018-09-30T09:56:34.317Z,46.86
2018-09-30T09:59:40.300Z,46.68
2018-09-30T10:02:45.706Z,46.39
2018-09-30T10:05:51.354Z,45.46
2018-09-30T10:08:56.777Z,44.52
2018-09-30T10:12:02.266Z,43.46
2018-09-30T10:15:08.054Z,44.34
2018-09-30T10:18:13.530Z,43.33
2018-09-30T10:21:18.919Z,43.72
2018-09-30T10:24:24.322Z,42.80
2018-09-30T10:27:30.530Z,42.94
2018-09-30T10:30:35.958Z,43.22
2018-09-30T10:33:41.412Z,43.05
2018-09-30T10:36:46.808Z,42.92
2018-09-30T10:39:53.211Z,42.64
2018-09-30T10:42:59.098Z,43.10
2018-09-30T10:46:04.719Z,42.75
2018-09-30T10:49:10.182Z,41.63
2018-09-30T10:52:15.564Z,41.13
2018-09-30T10:55:20.998Z,42.17
2018-09-30T10:58:26.625Z,42.04
2018-09-30T11:01:31.991Z,41.45
2018-09-30T11:04:37.404Z,41.33
2018-09-30T11:07:42.788Z,41.58
2018-09-30T11:10:48.194Z,41.59
2018-09-30T11:13:53.606Z,41.75
2018-09-30T11:16:59.043Z,41.98
2018-09-30T11:20:04.605Z,41.06
2018-09-30T11:23:09.994Z,42.09
2018-09-30T11:26:15.394Z,41.79
2018-09-30T11:29:20.898Z,42.14
2018-09-30T11:32:26.267Z,41.47
2018-09-30T11:35:31.690Z,41.77
2018-09-30T11:38:37.538Z,40.43
2018-09-30T11:41:44.398Z,38.63
2018-09-30T11:44:49.881Z,35.99
2018-09-30T11:47:55.250Z,34.50
2018-09-30T11:51:02.844Z,33.31
2018-09-30T11:54:08.603Z,31.78
2018-09-30T11:57:14.338Z,29.88
2018-09-30T12:00:19.798Z,30.00
2018-09-30T12:03:25.175Z,29.40
2018-09-30T12:06:30.589Z,28.32
2018-09-30T12:09:36.146Z,29.01
2018-09-30T12:12:41.518Z,29.52
2018-09-30T12:15:47.055Z,28.02
2018-09-30T12:18:52.539Z,30.23
2018-09-30T12:21:57.937Z,30.47
2018-09-30T12:25:03.431Z,30.96
2018-09-30T12:28:08.914Z,29.43
2018-09-30T12:31:14.327Z,29.94
2018-09-30T12:34:19.878Z,31.96
2018-09-30T12:37:25.302Z,31.19
2018-09-30T12:40:30.793Z,30.66
2018-09-30T12:43:37.370Z,31.34
2018-09-30T12:46:42.894Z,32.33
2018-09-30T12:49:48.310Z,34.21
2018-09-30T12:52:53.794Z,35.48
2018-09-30T12:55:59.266Z,35.75
2018-09-30T12:59:04.871Z,35.73
2018-09-30T13:02:10.622Z,35.22
2018-09-30T13:05:16.130Z,36.24
2018-09-30T13:08:21.726Z,37.54
2018-09-30T13:11:27.147Z,38.85
2018-09-30T13:14:32.583Z,39.63
2018-09-30T13:17:38.002Z,38.40
2018-09-30T13:20:43.462Z,37.48
2018-09-30T13:23:49.041Z,38.35
2018-09-30T13:26:54.542Z,38.42
2018-09-30T13:29:59.960Z,39.95
2018-09-30T13:33:05.429Z,40.68
2018-09-30T13:36:11.094Z,41.37
2018-09-30T13:39:16.593Z,41.22
2018-09-30T13:42:22.111Z,41.91
2018-09-30T13:45:27.613Z,42.21
2018-09-30T13:48:32.986Z,42.86
2018-09-30T13:51:38.404Z,43.28
2018-09-30T13:54:43.789Z,43.26
2018-09-30T13:57:50.263Z,42.65
2018-09-30T14:00:55.746Z,42.38
2018-09-30T14:04:01.175Z,42.72
2018-09-30T14:07:08.112Z,42.88
2018-09-30T14:10:14.256Z,44.23
2018-09-30T14:13:21.372Z,43.38
2018-09-30T14:16:27.655Z,42.78
2018-09-30T14:19:33.266Z,43.16
2018-09-30T14:22:38.739Z,44.19
2018-09-30T14:25:44.194Z,45.22
2018-09-30T14:28:49.715Z,45.26
2018-09-30T14:31:55.163Z,45.37
2018-09-30T14:35:01.497Z,46.05
2018-09-30T14:38:07.656Z,45.09
2018-09-30T14:41:13.968Z,45.60
2018-09-30T14:44:19.433Z,45.77
2018-09-30T14:47:24.910Z,46.79
2018-09-30T14:50:30.310Z,46.91
2018-09-30T14:53:36.389Z,46.95
2018-09-30T14:56:41.846Z,46.89
2018-09-30T14:59:47.330Z,47.66
2018-09-30T15:02:53.140Z,47.42
2018-09-30T15:05:58.612Z,48.30
2018-09-30T15:09:06.396Z,47.34
2018-09-30T15:12:11.846Z,47.95
2018-09-30T15:15:17.262Z,46.96
2018-09-30T15:18:22.694Z,47.76
2018-09-30T15:21:28.142Z,47.45
2018-09-30T15:24:33.557Z,48.02
2018-09-30T15:27:40.774Z,48.50
2018-09-30T15:30:46.291Z,49.12
2018-09-30T15:33:51.762Z,48.66
2018-09-30T15:36:57.180Z,49.24
2018-09-30T15:40:02.608Z,49.14
2018-09-30T15:43:08.091Z,49.72
2018-09-30T15:46:13.539Z,48.69
2018-09-30T15:49:19.033Z,49.21
2018-09-30T15:52:24.554Z,49.55
2018-09-30T15:55:30.321Z,49.94
2018-09-30T15:58:36.244Z,48.81
2018-09-30T16:01:41.674Z,48.10
2018-09-30T16:04:58.603Z,48.67
2018-09-30T16:08:04.039Z,48.29
2018-09-30T16:11:09.460Z,48.18
2018-09-30T16:14:14.902Z,48.11
2018-09-30T16:17:21.227Z,47.48
2018-09-30T16:20:27.614Z,47.19
2018-09-30T16:23:33.055Z,47.48
2018-09-30T16:26:38.442Z,47.18
2018-09-30T16:29:43.862Z,47.68
2018-09-30T16:32:49.301Z,48.07
2018-09-30T16:35:54.735Z,48.44
2018-09-30T16:39:00.174Z,49.18
2018-09-30T16:42:05.598Z,48.97
2018-09-30T16:45:11.190Z,48.88
2018-09-30T16:48:16.638Z,48.87
2018-09-30T16:51:22.058Z,49.36
2018-09-30T16:54:29.602Z,49.98
2018-09-30T16:57:35.286Z,49.41
2018-09-30T17:00:40.761Z,50.36
2018-09-30T17:03:46.218Z,51.82
2018-09-30T17:06:51.865Z,50.36
2018-09-30T17:09:57.494Z,51.63
2018-09-30T17:13:03.008Z,52.21
2018-09-30T17:16:09.139Z,52.66
2018-09-30T17:19:15.099Z,53.59
2018-09-30T17:22:20.890Z,54.53
2018-09-30T17:25:26.329Z,54.33
2018-09-30T17:28:31.786Z,54.46
2018-09-30T17:31:37.777Z,55.36
2018-09-30T17:34:43.299Z,55.34
2018-09-30T17:37:48.785Z,56.02
2018-09-30T17:40:54.498Z,57.02
2018-09-30T17:44:00.011Z,56.63
2018-09-30T17:47:05.575Z,57.69
2018-09-30T17:50:11.027Z,58.26
2018-09-30T17:53:16.598Z,58.93
2018-09-30T17:56:22.831Z,58.80
2018-09-30T17:59:28.983Z,59.69
2018-09-30T18:02:34.401Z,59.90
2018-09-30T18:05:39.878Z,60.49
2018-09-30T18:08:45.351Z,60.71
2018-09-30T18:11:50.797Z,60.89
2018-09-30T18:14:56.250Z,61.83
2018-09-30T18:18:01.703Z,61.37
2018-09-30T18:21:07.402Z,62.13
2018-09-30T18:24:12.917Z,62.24
2018-09-30T18:27:18.338Z,61.75
2018-09-30T18:30:23.771Z,62.39
2018-09-30T18:33:29.239Z,63.08
2018-09-30T18:36:35.262Z,63.25
2018-09-30T18:39:40.723Z,64.42
2018-09-30T18:42:46.338Z,64.61
2018-09-30T18:45:51.799Z,64.60
2018-09-30T18:48:57.222Z,64.69
2018-09-30T18:52:02.634Z,65.25
2018-09-30T18:55:08.093Z,64.53
2018-09-30T18:58:13.990Z,64.84
2018-09-30T19:01:19.450Z,65.70
2018-09-30T19:04:24.867Z,65.79
2018-09-30T19:07:30.767Z,65.38
2018-09-30T19:10:36.207Z,65.74
2018-09-30T19:13:41.658Z,66.13
2018-09-30T19:16:47.102Z,65.90
2018-09-30T19:19:52.550Z,66.12
2018-09-30T19:22:58.090Z,66.15
2018-09-30T19:26:03.734Z,66.47
2018-09-30T19:29:09.218Z,66.43
2018-09-30T19:32:15.371Z,66.10
2018-09-30T19:35:20.923Z,66.57
2018-09-30T19:38:26.372Z,67.30
2018-09-30T19:41:31.828Z,68.13
2018-09-30T19:44:37.495Z,68.36
2018-09-30T19:47:42.914Z,68.39
2018-09-30T19:50:48.362Z,68.42
2018-09-30T19:53:53.856Z,67.69
2018-09-30T19:56:59.475Z,67.84
2018-09-30T20:00:05.319Z,67.94
2018-09-30T20:03:11.178Z,67.97
2018-09-30T20:06:16.618Z,68.19
2018-09-30T20:09:22.046Z,68.01
2018-09-30T20:12:27.554Z,68.30
2018-09-30T20:15:33.012Z,68.20
2018-09-30T20:18:38.511Z,67.90
2018-09-30T20:21:43.957Z,68.71
2018-09-30T20:24:49.450Z,68.43
2018-09-30T20:27:55.086Z,68.15
2018-09-30T20:31:00.530Z,68.85
2018-09-30T20:34:06.249Z,68.31
2018-09-30T20:37:11.904Z,68.49
2018-09-30T20:40:17.434Z,68.57
2018-09-30T20:43:22.915Z,68.69
2018-09-30T20:46:28.345Z,67.99
2018-09-30T20:49:33.777Z,68.28
2018-09-30T20:52:39.219Z,68.20
2018-09-30T20:55:44.695Z,69.32
2018-09-30T20:58:50.318Z,69.69
2018-09-30T21:01:55.767Z,68.77
2018-09-30T21:05:13.707Z,68.73
2018-09-30T21:08:19.534Z,68.15
2018-09-30T21:11:26.141Z,68.51
2018-09-30T21:14:31.811Z,68.03
2018-09-30T21:17:37.647Z,67.35
2018-09-30T21:20:43.874Z,66.69
2018-09-30T21:23:49.295Z,67.59
2018-09-30T21:26:54.750Z,66.33
2018-09-30T21:30:00.162Z,66.02
2018-09-30T21:33:07.214Z,67.06
2018-09-30T21:36:12.663Z,66.94
2018-09-30T21:39:18.183Z,67.08
2018-09-30T21:42:23.626Z,67.07
2018-09-30T21:45:29.034Z,67.03
2018-09-30T21:48:34.533Z,66.80
2018-09-30T21:51:40.196Z,67.25
2018-09-30T21:54:45.613Z,66.99
2018-09-30T21:57:51.062Z,66.37
2018-09-30T22:01:01.726Z,66.70
2018-09-30T22:04:07.530Z,66.51
2018-09-30T22:07:13.106Z,66.35
2018-09-30T22:10:18.562Z,66.43
2018-09-30T22:13:24.415Z,66.83
2018-09-30T22:16:29.942Z,66.42
2018-09-30T22:19:35.367Z,66.89
2018-09-30T22:22:40.863Z,66.86
2018-09-30T22:25:46.588Z,66.89
2018-09-30T22:28:52.013Z,66.55
2018-09-30T22:31:57.449Z,66.93
2018-09-30T22:35:02.894Z,66.54
2018-09-30T22:38:08.331Z,67.45
2018-09-30T22:41:13.746Z,67.13
2018-09-30T22:44:19.377Z,67.24
2018-09-30T22:47:24.797Z,67.35
2018-09-30T22:50:30.529Z,67.26
2018-09-30T22:53:36.151Z,67.53
2018-09-30T22:56:41.570Z,67.29
2018-09-30T22:59:47.006Z,67.60
2018-09-30T23:02:52.449Z,67.58
2018-09-30T23:05:57.869Z,67.62
2018-09-30T23:09:03.342Z,68.22
2018-09-30T23:12:08.767Z,67.65
2018-09-30T23:15:14.543Z,67.63
2018-09-30T23:18:20.044Z,67.19
2018-09-30T23:21:25.481Z,67.65
2018-09-30T23:24:30.914Z,67.97
2018-09-30T23:27:36.346Z,68.00
2018-09-30T23:30:41.762Z,67.69
2018-09-30T23:33:47.207Z,67.72
2018-09-30T23:36:53.407Z,68.21
2018-09-30T23:39:58.923Z,68.16
2018-09-30T23:43:04.370Z,67.81
2018-09-30T23:46:09.797Z,67.76
2018-09-30T23:49:15.271Z,68.13
2018-09-30T23:52:20.714Z,67.86
2018-09-30T23:55:26.140Z,68.43
2018-09-30T23:58:31.682Z,68.37
